Time;durP1;ratioP1;P1;durP2;ratioP2;P2;SDS_P1;SDS_P2;PMS_P1;PMS_P2;Temp;Humidity;BMP_temperature;BMP_pressure;BME280_temperature;BME280_humidity;BME280_pressure;Samples;Min_cycle;Max_cycle;Signal;HPM_P1;HPM_P2
2023/04/03 00:00:49;;;;;;;11.80;7.90;;;;;;;8.74;71.36;99742.55;105176;1255;382473;-49
2023/04/03 00:15:18;;;;;;;10.80;7.30;;;;;;;8.94;71.37;99736.37;103123;1287;606110;-49
2023/04/03 00:17:47;;;;;;;11.00;6.90;;;;;;;9.28;70.15;99738.63;104587;1268;94794;-50
2023/04/03 00:20:17;;;;;;;10.80;7.20;;;;;;;9.17;70.15;99740.77;104803;1265;59355;-50
2023/04/03 00:22:45;;;;;;;9.80;6.20;;;;;;;9.11;70.40;99745.27;104659;1270;64419;-50
2023/04/03 00:25:14;;;;;;;12.70;7.10;;;;;;;9.10;70.52;99743.27;104698;1273;61385;-49
2023/04/03 00:27:43;;;;;;;11.30;7.20;;;;;;;9.08;70.65;99739.55;104676;1271;65079;-49
2023/04/03 00:30:15;;;;;;;12.20;7.40;;;;;;;9.01;70.66;99737.35;104724;1270;59310;-51
2023/04/03 00:32:44;;;;;;;11.60;8.40;;;;;;;8.93;70.95;99735.80;104693;1270;59314;-50
2023/04/03 00:35:15;;;;;;;13.10;8.60;;;;;;;8.86;71.13;99732.86;104772;1269;64463;-50
2023/04/03 00:37:44;;;;;;;10.00;7.50;;;;;;;8.83;71.22;99733.80;104716;1269;62598;-49
2023/04/03 00:40:13;;;;;;;12.00;7.80;;;;;;;8.82;71.26;99731.65;104635;1270;65066;-49
2023/04/03 00:42:45;;;;;;;11.00;7.80;;;;;;;8.80;71.53;99732.35;104614;1267;59625;-49
2023/04/03 00:45:35;;;;;;;11.00;7.90;;;;;;;8.75;71.63;99727.81;105006;1266;59734;-49
2023/04/03 00:48:06;;;;;;;9.30;4.00;;;;;;;8.69;71.78;99727.61;104679;1270;65356;-49
2023/04/03 00:50:37;;;;;;;10.80;7.20;;;;;;;8.70;71.93;99725.30;105324;1264;61767;-49
2023/04/03 00:53:11;;;;;;;12.30;7.10;;;;;;;8.72;71.86;99726.83;105247;1260;64022;-49
2023/04/03 00:55:40;;;;;;;12.10;8.00;;;;;;;8.70;71.93;99729.44;105422;1257;59761;-49
2023/04/03 00:58:09;;;;;;;10.90;8.50;;;;;;;8.67;72.20;99730.10;105302;1258;59839;-48
2023/04/03 01:00:39;;;;;;;11.00;7.40;;;;;;;8.65;72.31;99729.01;105294;1263;65099;-49
2023/04/03 01:03:08;;;;;;;9.80;7.10;;;;;;;8.66;72.16;99728.22;105170;1260;61577;-50
2023/04/03 01:05:36;;;;;;;10.10;7.20;;;;;;;8.68;72.17;99727.85;105343;1263;64799;-51
2023/04/03 01:08:05;;;;;;;10.20;7.50;;;;;;;8.67;72.09;99726.71;105330;1263;59989;-50
2023/04/03 01:10:34;;;;;;;10.90;6.90;;;;;;;8.63;72.26;99725.81;105315;1257;59692;-50
2023/04/03 01:13:17;;;;;;;11.70;7.90;;;;;;;8.58;72.44;99725.05;105369;1257;65356;-50
2023/04/03 01:15:45;;;;;;;11.40;7.50;;;;;;;8.55;72.44;99724.05;105451;1262;63027;-49
2023/04/03 01:18:14;;;;;;;11.60;7.50;;;;;;;8.55;72.47;99724.38;105272;1258;64938;-50
2023/04/03 01:20:55;;;;;;;10.00;6.70;;;;;;;8.55;72.59;99724.92;105377;1258;59554;-50
2023/04/03 01:23:51;;;;;;;10.40;6.90;;;;;;;8.52;72.70;99726.73;105244;1259;59759;-51
2023/04/03 01:26:20;;;;;;;8.40;3.30;;;;;;;8.52;72.78;99729.04;105520;1263;65161;-49
2023/04/03 01:28:48;;;;;;;9.90;6.30;;;;;;;8.54;72.69;99725.67;105178;1257;62900;-49
2023/04/03 01:31:42;;;;;;;11.40;7.50;;;;;;;8.56;72.71;99721.89;105100;1263;65061;-50
2023/04/03 01:34:11;;;;;;;9.80;6.70;;;;;;;8.56;72.78;99719.09;105254;1257;59580;-49
2023/04/03 01:36:39;;;;;;;11.00;6.80;;;;;;;8.54;72.85;99722.55;105268;1263;59672;-51
2023/04/03 01:39:08;;;;;;;9.60;6.70;;;;;;;8.51;73.00;99719.52;105293;1263;65505;-49
2023/04/03 01:41:37;;;;;;;11.40;7.30;;;;;;;8.53;72.93;99721.79;105104;1260;63138;-49
2023/04/03 01:44:13;;;;;;;10.20;6.90;;;;;;;8.57;72.87;99721.49;105189;1261;64727;-50
2023/04/03 01:46:42;;;;;;;10.90;7.50;;;;;;;8.57;72.86;99722.48;105036;1260;59653;-50
2023/04/03 01:49:10;;;;;;;11.10;7.10;;;;;;;8.52;72.93;99724.29;105076;1257;60069;-49
2023/04/03 01:51:40;;;;;;;10.10;7.10;;;;;;;8.46;73.05;99724.06;105065;1259;64424;-51
2023/04/03 01:54:09;;;;;;;11.90;6.70;;;;;;;8.46;72.89;99725.83;105178;1258;62343;-50
2023/04/03 01:56:38;;;;;;;8.90;6.20;;;;;;;8.48;73.04;99723.54;105578;1258;65139;-50
2023/04/03 01:59:08;;;;;;;10.80;7.40;;;;;;;8.46;72.96;99725.30;105263;1264;59755;-50
2023/04/03 02:01:38;;;;;;;10.90;7.40;;;;;;;8.43;73.22;99723.45;105284;1258;59565;-49
2023/04/03 02:04:06;;;;;;;13.60;7.80;;;;;;;8.40;73.42;99721.05;105406;1260;65549;-49
2023/04/03 02:06:35;;;;;;;10.80;7.20;;;;;;;8.40;73.40;99722.08;105604;1255;62347;-50
2023/04/03 02:09:06;;;;;;;11.40;6.80;;;;;;;8.43;73.42;99723.80;105308;1256;65064;-49
2023/04/03 02:11:35;;;;;;;11.20;7.60;;;;;;;8.45;73.38;99725.40;105563;1259;59839;-50
2023/04/03 02:14:05;;;;;;;12.30;7.70;;;;;;;8.44;73.51;99725.98;105558;1256;59654;-49
2023/04/03 02:16:35;;;;;;;12.90;7.70;;;;;;;8.43;73.59;99726.63;105414;1254;74282;-50
2023/04/03 02:19:03;;;;;;;11.60;7.70;;;;;;;8.45;73.48;99730.42;105704;1256;62207;-50
2023/04/03 02:21:34;;;;;;;10.10;6.80;;;;;;;8.50;73.31;99729.89;105339;1258;65093;-50
2023/04/03 02:24:03;;;;;;;11.50;7.20;;;;;;;8.49;73.06;99729.81;105358;1257;60877;-49
2023/04/03 02:26:31;;;;;;;10.30;7.40;;;;;;;8.44;73.24;99729.16;105425;1254;60107;-50
2023/04/03 02:29:00;;;;;;;9.80;6.50;;;;;;;8.40;73.43;99731.40;105526;1258;65389;-50
2023/04/03 02:31:29;;;;;;;11.80;7.00;;;;;;;8.41;73.45;99731.30;105623;1254;62783;-51
2023/04/03 02:34:00;;;;;;;12.60;7.10;;;;;;;8.45;73.34;99729.45;105420;1259;64814;-50
2023/04/03 02:36:28;;;;;;;12.20;7.90;;;;;;;8.49;73.31;99732.20;105480;1256;59678;-50
2023/04/03 02:39:00;;;;;;;10.00;7.30;;;;;;;8.53;73.39;99731.21;105460;1259;59766;-50
2023/04/03 02:41:34;;;;;;;11.10;7.10;;;;;;;8.54;73.32;99732.85;105577;1258;65171;-50
2023/04/03 02:44:05;;;;;;;7.90;3.50;;;;;;;8.54;73.12;99733.23;105930;1255;62388;-51
2023/04/03 02:46:33;;;;;;;10.40;6.60;;;;;;;8.56;72.91;99731.16;105382;1260;65026;-50
2023/04/03 02:49:03;;;;;;;10.10;7.10;;;;;;;8.57;73.03;99731.42;105662;1259;59691;-53
2023/04/03 02:51:31;;;;;;;11.20;7.00;;;;;;;8.54;73.11;99731.16;105415;1254;59833;-50
2023/04/03 02:54:00;;;;;;;11.40;7.60;;;;;;;8.50;73.27;99726.02;105524;1256;65146;-50
2023/04/03 02:56:31;;;;;;;11.90;7.00;;;;;;;8.46;73.22;99731.11;105599;1254;62318;-49
2023/04/03 02:59:00;;;;;;;11.40;7.00;;;;;;;8.47;73.33;99733.84;105475;1254;64761;-51
2023/04/03 03:01:31;;;;;;;11.70;7.60;;;;;;;8.52;73.29;99732.36;105474;1254;59750;-51
2023/04/03 03:04:00;;;;;;;11.70;7.60;;;;;;;8.52;73.39;99732.84;105457;1259;59687;-50
2023/04/03 03:06:29;;;;;;;10.90;7.90;;;;;;;8.49;73.40;99734.69;105615;1254;64434;-51
2023/04/03 03:08:57;;;;;;;10.90;7.70;;;;;;;8.46;73.44;99731.41;105486;1254;63030;-50
2023/04/03 03:11:26;;;;;;;10.80;6.90;;;;;;;8.47;73.38;99735.70;105446;1259;65503;-50
2023/04/03 03:13:54;;;;;;;12.90;7.10;;;;;;;8.50;73.26;99739.30;105495;1254;59793;-49
2023/04/03 03:16:26;;;;;;;10.40;7.10;;;;;;;8.52;73.31;99736.04;105430;1257;59635;-49
2023/04/03 03:18:54;;;;;;;12.10;8.30;;;;;;;8.53;73.26;99736.80;105380;1256;65264;-49
2023/04/03 03:21:31;;;;;;;11.20;7.00;;;;;;;8.53;73.32;99735.77;105538;1254;62589;-50
2023/04/03 03:23:59;;;;;;;11.30;7.00;;;;;;;8.56;73.28;99734.29;105491;1254;67951;-51
2023/04/03 03:26:28;;;;;;;10.70;7.70;;;;;;;8.59;73.14;99736.14;105423;1257;60072;-50
2023/04/03 03:28:57;;;;;;;10.80;7.50;;;;;;;8.59;73.19;99735.09;105738;1254;59820;-51
2023/04/03 03:31:26;;;;;;;13.80;9.00;;;;;;;8.56;73.26;99736.70;105455;1254;65637;-50
2023/04/03 03:33:55;;;;;;;13.40;8.40;;;;;;;8.54;73.31;99737.08;105587;1258;62383;-50
2023/04/03 03:36:23;;;;;;;11.40;7.40;;;;;;;8.52;73.30;99735.46;105427;1259;64725;-50
2023/04/03 03:38:51;;;;;;;14.30;8.20;;;;;;;8.54;73.26;99737.08;105488;1257;59814;-49
2023/04/03 03:41:20;;;;;;;12.60;7.90;;;;;;;8.53;73.23;99735.77;105525;1254;60901;-50
2023/04/03 03:43:49;;;;;;;11.90;8.50;;;;;;;8.49;73.37;99735.91;105530;1254;65077;-50
2023/04/03 03:46:17;;;;;;;12.40;8.30;;;;;;;8.45;73.55;99737.29;105460;1259;61623;-50
2023/04/03 03:48:46;;;;;;;12.70;8.00;;;;;;;8.41;73.63;99737.77;105573;1255;64011;-49
2023/04/03 03:51:15;;;;;;;11.00;7.80;;;;;;;8.42;73.58;99740.52;105452;1254;59646;-49
2023/04/03 03:53:43;;;;;;;12.00;8.40;;;;;;;8.45;73.69;99743.53;105475;1256;59727;-49
2023/04/03 03:56:14;;;;;;;13.70;8.20;;;;;;;8.49;73.70;99743.03;105444;1259;65090;-50
2023/04/03 03:58:42;;;;;;;13.50;9.10;;;;;;;8.49;73.74;99741.66;105365;1254;62344;-49
2023/04/03 04:01:11;;;;;;;13.60;9.10;;;;;;;8.47;73.81;99736.73;105496;1254;65027;-50
2023/04/03 04:03:43;;;;;;;11.40;8.70;;;;;;;8.44;73.79;99740.34;105495;1257;59930;-49
2023/04/03 04:06:13;;;;;;;12.90;8.70;;;;;;;8.46;73.91;99743.67;105437;1255;59657;-50
2023/04/03 04:08:44;;;;;;;12.20;8.90;;;;;;;8.52;74.02;99748.23;105614;1259;65408;-49
2023/04/03 04:11:13;;;;;;;12.90;8.30;;;;;;;8.55;73.95;99748.50;105542;1254;62455;-49
2023/04/03 04:13:41;;;;;;;12.60;8.90;;;;;;;8.52;74.00;99746.13;105531;1254;65050;-50
2023/04/03 04:16:11;;;;;;;12.40;8.70;;;;;;;8.49;73.90;99748.12;105544;1254;59791;-49
2023/04/03 04:18:40;;;;;;;13.50;8.50;;;;;;;8.50;73.79;99745.45;105371;1254;59720;-50
2023/04/03 04:21:09;;;;;;;11.90;8.30;;;;;;;8.52;73.84;99746.66;105464;1254;64331;-48
2023/04/03 04:23:39;;;;;;;14.40;9.70;;;;;;;8.52;73.95;99746.64;105452;1258;61470;-49
2023/04/03 04:26:07;;;;;;;12.20;9.10;;;;;;;8.49;74.03;99746.02;105786;1254;64735;-49
2023/04/03 04:28:38;;;;;;;12.40;8.90;;;;;;;8.46;74.03;99748.59;105470;1258;60630;-49
2023/04/03 04:31:06;;;;;;;13.10;7.70;;;;;;;8.47;74.06;99752.32;105382;1254;60556;-50
2023/04/03 04:33:38;;;;;;;14.90;9.60;;;;;;;8.50;74.09;99750.48;105377;1259;66138;-49
2023/04/03 04:36:07;;;;;;;12.70;8.70;;;;;;;8.50;74.13;99751.38;105505;1257;62643;-49
2023/04/03 04:38:41;;;;;;;14.70;9.10;;;;;;;8.47;74.19;99753.40;105392;1259;64951;-49
2023/04/03 04:41:10;;;;;;;13.80;9.10;;;;;;;8.46;74.28;99754.98;105650;1259;60482;-49
2023/04/03 04:43:39;;;;;;;13.30;9.60;;;;;;;8.52;74.26;99757.67;105655;1254;60446;-49
2023/04/03 04:46:09;;;;;;;13.80;9.50;;;;;;;8.56;74.14;99756.63;105540;1254;65605;-49
2023/04/03 04:48:42;;;;;;;12.40;8.70;;;;;;;8.55;74.13;99761.48;105494;1254;62640;-50
2023/04/03 04:51:12;;;;;;;12.80;8.40;;;;;;;8.53;74.07;99761.95;105425;1259;73545;-49
2023/04/03 04:53:41;;;;;;;13.00;8.40;;;;;;;8.55;74.13;99763.90;105523;1259;60550;-50
2023/04/03 04:56:15;;;;;;;13.40;9.10;;;;;;;8.60;73.97;99763.89;105331;1259;60451;-51
2023/04/03 04:58:44;;;;;;;12.30;8.90;;;;;;;8.61;73.87;99764.64;105308;1254;66190;-51
2023/04/03 05:01:12;;;;;;;13.90;9.70;;;;;;;8.60;73.95;99764.02;105411;1254;62591;-51
2023/04/03 05:03:58;;;;;;;9.20;4.40;;;;;;;8.59;73.95;99766.95;105148;1254;63874;-50
2023/04/03 05:06:27;;;;;;;13.40;9.40;;;;;;;8.56;74.07;99768.90;105476;1254;60486;-50
2023/04/03 05:08:56;;;;;;;11.80;8.50;;;;;;;8.60;74.03;99771.25;105421;1254;60591;-51
2023/04/03 05:11:25;;;;;;;13.00;8.30;;;;;;;8.63;73.87;99771.45;106460;1256;65901;-51
2023/04/03 05:13:53;;;;;;;12.20;8.70;;;;;;;8.67;73.81;99771.02;105475;1257;61623;-51
2023/04/03 05:16:22;;;;;;;13.10;9.40;;;;;;;8.68;73.83;99771.73;105403;1257;65034;-50
2023/04/03 05:18:51;;;;;;;12.10;8.90;;;;;;;8.67;73.88;99772.86;105515;1254;60548;-51
2023/04/03 05:21:23;;;;;;;13.10;8.50;;;;;;;8.66;73.90;99773.33;109151;1255;58348;-51
2023/04/03 05:23:51;;;;;;;12.70;9.20;;;;;;;8.71;73.85;99773.11;109147;1254;65737;-49
2023/04/03 05:26:20;;;;;;;12.20;9.00;;;;;;;8.78;73.59;99772.56;109160;1254;61631;-49
2023/04/03 05:28:49;;;;;;;16.40;10.00;;;;;;;8.81;73.56;99776.82;109058;1254;64886;-49
2023/04/03 05:31:19;;;;;;;15.30;9.30;;;;;;;8.83;73.57;99779.46;109089;1254;58432;-49
2023/04/03 05:33:48;;;;;;;11.60;8.10;;;;;;;8.84;73.42;99779.44;109061;1256;58605;-49
2023/04/03 05:36:18;;;;;;;12.70;7.90;;;;;;;8.89;73.19;99781.95;107093;1256;66362;-51
2023/04/03 05:38:49;;;;;;;12.90;9.00;;;;;;;8.96;73.04;99783.09;105206;1257;61640;-51
2023/04/03 05:41:18;;;;;;;12.00;8.70;;;;;;;9.00;73.07;99782.77;106784;1255;64946;-50
2023/04/03 05:43:46;;;;;;;13.50;9.60;;;;;;;9.00;73.05;99784.88;105586;1259;60550;-51
2023/04/03 05:46:16;;;;;;;12.20;7.90;;;;;;;8.99;73.02;99788.09;105225;1257;60425;-48
2023/04/03 05:48:46;;;;;;;13.40;8.80;;;;;;;9.03;72.97;99790.70;106420;1254;64892;-49
2023/04/03 05:51:19;;;;;;;12.00;8.30;;;;;;;9.08;72.75;99791.73;105019;1254;61593;-50
2023/04/03 05:53:48;;;;;;;12.20;9.30;;;;;;;9.09;72.58;99792.92;109201;1254;65083;-50
2023/04/03 05:56:17;;;;;;;12.00;8.60;;;;;;;9.07;72.59;99794.62;108917;1256;58523;-51
2023/04/03 05:58:46;;;;;;;12.10;8.50;;;;;;;9.04;72.60;99796.09;109031;1254;58448;-50
2023/04/03 06:01:15;;;;;;;12.70;8.60;;;;;;;9.03;72.55;99795.45;105337;1259;65874;-49
2023/04/03 06:03:45;;;;;;;9.80;7.30;;;;;;;9.04;72.62;99795.58;104961;1256;61431;-48
2023/04/03 06:06:15;;;;;;;11.30;8.10;;;;;;;9.06;72.75;99798.75;105468;1254;64845;-48
2023/04/03 06:08:43;;;;;;;13.60;9.40;;;;;;;9.07;72.87;99804.08;109133;1254;58424;-49
2023/04/03 06:11:13;;;;;;;13.60;8.40;;;;;;;9.08;72.81;99806.81;109200;1254;58627;-50
2023/04/03 06:13:41;;;;;;;12.80;8.70;;;;;;;9.12;72.70;99809.28;109126;1256;66219;-49
2023/04/03 06:16:13;;;;;;;11.00;7.60;;;;;;;9.18;72.61;99813.69;109194;1254;61725;-51
2023/04/03 06:18:42;;;;;;;12.20;9.30;;;;;;;9.23;72.56;99811.73;109106;1254;65131;-51
2023/04/03 06:21:10;;;;;;;12.40;8.40;;;;;;;9.24;72.49;99811.10;107685;1259;60517;-51
2023/04/03 06:23:40;;;;;;;14.10;9.30;;;;;;;9.23;72.62;99817.83;105362;1254;60495;-51
2023/04/03 06:26:08;;;;;;;11.10;8.40;;;;;;;9.22;72.63;99820.73;105280;1256;66214;-50
2023/04/03 06:28:40;;;;;;;10.40;7.60;;;;;;;9.25;72.61;99822.70;105132;1254;62694;-50
2023/04/03 06:31:08;;;;;;;11.80;8.10;;;;;;;9.29;72.45;99825.11;105271;1257;65284;-51
2023/04/03 12:27:40;;;;;;;10.90;5.80;;;;;;;9.92;71.10;99994.38;102564;1294;59209;-59
2023/04/03 12:30:19;;;;;;;8.90;5.50;;;;;;;9.87;71.17;99998.09;104529;1272;59110;-59
2023/04/03 12:33:18;;;;;;;10.40;5.20;;;;;;;9.79;71.22;100000.13;104796;1267;64710;-55
2023/04/03 12:35:54;;;;;;;5.90;4.00;;;;;;;9.72;71.15;100001.83;97412;1264;10296248;-59
2023/04/03 12:38:27;;;;;;;6.10;4.00;;;;;;;9.64;71.02;100002.45;104876;1267;59273;-56
2023/04/03 12:41:17;;;;;;;6.40;4.10;;;;;;;9.49;71.06;100003.13;104633;1264;59391;-59
2023/04/03 12:44:16;;;;;;;6.50;4.30;;;;;;;9.40;71.37;100013.48;105458;1267;64389;-61
2023/04/03 12:46:45;;;;;;;8.00;4.90;;;;;;;9.32;71.64;100016.74;105261;1264;62552;-56
2023/04/03 12:49:41;;;;;;;7.20;4.80;;;;;;;9.20;71.66;100018.75;105274;1266;65110;-61
2023/04/03 12:52:19;;;;;;;4.80;2.10;;;;;;;9.07;71.96;100015.59;104938;1264;59653;-57
2023/04/03 12:54:46;;;;;;;9.90;5.20;;;;;;;8.96;72.20;100016.00;107814;1264;59621;-60
2023/04/03 12:57:18;;;;;;;7.90;4.90;;;;;;;8.89;72.30;100017.95;104937;1265;65582;-58
2023/04/03 12:59:46;;;;;;;7.50;4.80;;;;;;;8.84;72.59;100022.30;108614;1264;61770;-60
2023/04/03 13:02:28;;;;;;;8.10;5.20;;;;;;;8.83;72.74;100023.47;108546;1264;65063;-62
2023/04/03 13:04:58;;;;;;;7.30;5.30;;;;;;;8.79;72.40;100023.42;106828;1265;59247;-57
2023/04/03 13:07:37;;;;;;;9.10;5.70;;;;;;;8.70;72.47;100023.08;105756;1264;59768;-56
2023/04/03 13:10:07;;;;;;;8.10;5.10;;;;;;;8.69;72.60;100034.67;108622;1264;65147;-60
2023/04/03 13:12:35;;;;;;;8.30;5.20;;;;;;;8.65;72.52;100035.84;108602;1264;62622;-59
2023/04/03 13:15:12;;;;;;;8.40;5.50;;;;;;;8.63;72.48;100043.19;108555;1264;64977;-59
2023/04/03 13:17:41;;;;;;;7.60;5.10;;;;;;;8.60;72.54;100050.21;108558;1264;59696;-59
2023/04/03 13:20:22;;;;;;;8.20;5.50;;;;;;;8.58;72.40;100048.84;105192;1264;59670;-57
2023/04/03 13:22:58;;;;;;;9.00;5.40;;;;;;;8.46;72.52;100052.33;104906;1266;65544;-60
2023/04/03 13:25:26;;;;;;;5.10;1.70;;;;;;;8.43;72.71;100058.70;104938;1266;62451;-59
2023/04/03 13:27:53;;;;;;;9.50;5.70;;;;;;;8.43;72.76;100061.89;104867;1268;65185;-60
2023/04/03 13:30:39;;;;;;;9.30;5.80;;;;;;;8.37;72.84;100066.45;104724;1264;59540;-58
2023/04/03 13:33:21;;;;;;;10.70;5.50;;;;;;;8.34;72.96;100072.83;104762;1264;60499;-57
2023/04/03 13:35:48;;;;;;;9.40;6.10;;;;;;;8.35;72.91;100077.28;108585;1263;64148;-58
2023/04/03 13:38:18;;;;;;;7.40;5.40;;;;;;;8.27;72.94;100077.67;108477;1263;62805;-58
2023/04/03 13:40:49;;;;;;;8.60;5.40;;;;;;;8.31;72.94;100085.08;107807;1265;64924;-57
2023/04/03 13:43:18;;;;;;;9.40;5.20;;;;;;;8.27;72.79;100088.20;105002;1264;59747;-58
2023/04/03 13:46:04;;;;;;;9.20;5.60;;;;;;;8.27;72.80;100095.71;105030;1264;59840;-58
2023/04/03 13:48:40;;;;;;;7.50;4.80;;;;;;;8.21;73.00;100099.67;104985;1267;65486;-56
2023/04/03 13:51:16;;;;;;;5.50;2.10;;;;;;;8.17;72.90;100102.71;105196;1263;62603;-57
2023/04/03 13:53:48;;;;;;;8.10;5.40;;;;;;;8.17;72.81;100105.14;104962;1266;64931;-57
2023/04/03 13:56:26;;;;;;;8.40;5.30;;;;;;;8.10;73.02;100109.54;104844;1266;59658;-57
2023/04/03 13:59:16;;;;;;;8.30;5.20;;;;;;;8.06;73.22;100116.12;104947;1263;59603;-58
2023/04/03 14:01:50;;;;;;;8.80;5.50;;;;;;;8.01;73.44;100122.64;104902;1266;65063;-57
2023/04/03 14:04:26;;;;;;;9.70;6.20;;;;;;;7.91;73.62;100125.61;104731;1264;62418;-58
2023/04/03 14:06:53;;;;;;;5.60;2.20;;;;;;;7.93;73.55;100126.48;104776;1263;65057;-58
2023/04/03 14:09:21;;;;;;;7.10;4.70;;;;;;;7.91;73.46;100130.45;104591;1266;59648;-59
2023/04/03 14:11:50;;;;;;;7.80;4.90;;;;;;;7.86;73.36;100133.81;105276;1265;59372;-56
2023/04/03 14:14:26;;;;;;;7.60;4.40;;;;;;;7.80;73.46;100139.16;104895;1264;65215;-57
2023/04/03 14:16:55;;;;;;;7.40;4.90;;;;;;;7.78;73.57;100140.85;104884;1268;62645;-59
2023/04/03 14:19:30;;;;;;;8.10;5.40;;;;;;;7.74;73.62;100142.73;104959;1264;65181;-59
2023/04/03 14:22:17;;;;;;;9.00;5.60;;;;;;;7.70;73.74;100141.63;104742;1266;59743;-59
2023/04/03 14:24:46;;;;;;;7.70;5.10;;;;;;;7.66;73.69;100141.21;104782;1264;61050;-58
2023/04/03 14:27:19;;;;;;;10.70;5.60;;;;;;;7.64;73.79;100147.44;104909;1263;65599;-58
2023/04/03 14:44:54;;;;;;;5.20;3.20;;;;;;;7.77;72.37;100159.93;102350;1296;607704;-58
2023/04/03 14:47:26;;;;;;;5.90;3.30;;;;;;;8.00;70.62;100170.54;104720;1267;95159;-58
2023/04/03 14:50:00;;;;;;;7.20;4.20;;;;;;;7.90;71.13;100169.86;106949;1266;59813;-57
2023/04/03 14:52:32;;;;;;;6.00;4.00;;;;;;;7.76;71.58;100170.35;104508;1270;64497;-59
2023/04/03 14:55:00;;;;;;;6.90;4.40;;;;;;;7.60;71.88;100174.28;108477;1266;62685;-58
2023/04/03 14:57:27;;;;;;;6.50;3.90;;;;;;;7.59;72.10;100175.94;108448;1266;63724;-58
2023/04/03 14:59:54;;;;;;;7.30;3.50;;;;;;;7.58;72.38;100178.95;108433;1266;57095;-59
2023/04/03 15:02:35;;;;;;;6.50;3.80;;;;;;;7.51;72.40;100177.51;108488;1266;57266;-58
2023/04/03 15:05:04;;;;;;;7.10;4.10;;;;;;;7.50;72.42;100181.25;108500;1266;64334;-58
2023/04/03 15:07:34;;;;;;;12.00;3.60;;;;;;;7.45;72.29;100185.96;105099;1270;61661;-57
2023/04/03 15:10:03;;;;;;;5.90;3.30;;;;;;;7.37;72.50;100189.11;104910;1266;64923;-58
2023/04/03 15:12:34;;;;;;;9.20;4.30;;;;;;;7.36;72.79;100200.42;104719;1267;59817;-58
2023/04/03 15:15:01;;;;;;;6.10;3.30;;;;;;;7.28;72.83;100201.62;104884;1266;59717;-60
2023/04/03 15:17:31;;;;;;;7.90;3.80;;;;;;;7.19;72.91;100201.87;104728;1269;65287;-59
2023/04/03 15:19:59;;;;;;;6.70;3.60;;;;;;;7.19;72.98;100209.76;104735;1266;62620;-58
2023/04/03 15:22:26;;;;;;;5.70;3.00;;;;;;;7.08;72.90;100214.66;104552;1267;64807;-59
2023/04/03 15:24:53;;;;;;;5.10;2.60;;;;;;;6.98;72.73;100217.60;105240;1268;59670;-59
2023/04/03 15:27:20;;;;;;;5.60;2.90;;;;;;;6.93;72.76;100224.77;104615;1267;59772;-58
2023/04/03 15:29:47;;;;;;;5.20;2.70;;;;;;;6.94;72.97;100222.98;104606;1271;65212;-59
2023/04/03 15:32:15;;;;;;;4.50;1.30;;;;;;;6.87;73.31;100220.80;104728;1267;62315;-59
2023/04/03 15:34:42;;;;;;;5.60;2.90;;;;;;;6.84;73.60;100223.99;104811;1267;65052;-58
2023/04/03 15:37:11;;;;;;;5.40;3.20;;;;;;;6.82;73.81;100228.61;104870;1266;59666;-57
2023/04/03 15:39:38;;;;;;;6.40;3.40;;;;;;;6.80;73.98;100232.23;104771;1265;59650;-58
2023/04/03 15:42:05;;;;;;;5.00;1.10;;;;;;;6.78;74.04;100233.26;104743;1267;65245;-59
2023/04/03 15:44:35;;;;;;;6.20;3.20;;;;;;;6.79;74.01;100234.97;104702;1267;62682;-59
2023/04/03 15:47:02;;;;;;;6.30;3.40;;;;;;;6.76;74.15;100233.42;104697;1267;74054;-57
2023/04/03 15:49:32;;;;;;;4.10;1.20;;;;;;;6.75;74.14;100233.65;105482;1256;59772;-56
2023/04/03 15:51:59;;;;;;;6.00;3.60;;;;;;;6.77;74.11;100234.69;105487;1257;59647;-55
2023/04/03 15:54:29;;;;;;;5.60;3.10;;;;;;;6.75;73.70;100236.59;105696;1260;65341;-59
2023/04/03 15:56:56;;;;;;;7.30;3.60;;;;;;;6.67;73.71;100237.31;105817;1257;62488;-58
2023/04/03 15:59:23;;;;;;;6.40;3.10;;;;;;;6.65;73.62;100243.16;105456;1256;64845;-56
2023/04/03 16:01:50;;;;;;;6.80;4.10;;;;;;;6.67;73.67;100250.71;105527;1257;59760;-56
2023/04/03 16:04:17;;;;;;;4.20;1.50;;;;;;;6.67;73.87;100250.16;105533;1256;59769;-56
2023/04/03 16:06:51;;;;;;;5.90;3.40;;;;;;;6.63;73.90;100249.44;105490;1260;65162;-55
2023/04/03 16:09:19;;;;;;;5.40;3.10;;;;;;;6.63;73.81;100251.36;105303;1257;62411;-59
2023/04/03 16:11:46;;;;;;;5.90;3.40;;;;;;;6.64;73.76;100253.52;105512;1257;64179;-60
2023/04/03 16:14:15;;;;;;;4.70;1.80;;;;;;;6.59;73.71;100256.15;105316;1259;59742;-59
2023/04/03 16:16:42;;;;;;;5.90;3.30;;;;;;;6.58;73.65;100257.22;105301;1258;59661;-59
2023/04/03 16:19:09;;;;;;;6.70;3.70;;;;;;;6.62;73.75;100259.78;105132;1260;65640;-63
2023/04/03 16:21:37;;;;;;;6.30;2.10;;;;;;;6.54;73.67;100258.70;105555;1257;60423;-61
2023/04/03 16:24:05;;;;;;;6.40;3.70;;;;;;;6.52;73.90;100259.73;105328;1259;64950;-62
2023/04/03 16:26:34;;;;;;;6.40;3.30;;;;;;;6.51;73.73;100261.48;105455;1256;59711;-63
2023/04/03 16:29:01;;;;;;;4.40;1.20;;;;;;;6.47;72.94;100264.59;105554;1256;59785;-64
2023/04/03 16:31:28;;;;;;;5.90;2.80;;;;;;;6.44;72.87;100274.73;105443;1259;65275;-63
2023/04/03 16:33:56;;;;;;;4.30;2.40;;;;;;;6.33;72.69;100271.05;105460;1257;62388;-63
2023/04/03 16:36:25;;;;;;;5.40;2.30;;;;;;;6.26;72.21;100271.14;105473;1256;65044;-62
2023/04/03 16:38:52;;;;;;;4.40;1.40;;;;;;;6.23;72.51;100275.20;105486;1260;59747;-63
2023/04/03 16:41:18;;;;;;;4.40;2.00;;;;;;;6.15;72.69;100275.83;105335;1259;59679;-61
2023/04/03 16:43:45;;;;;;;3.90;1.20;;;;;;;6.15;72.58;100274.09;105297;1259;65394;-61
2023/04/03 16:46:12;;;;;;;4.90;2.00;;;;;;;6.12;72.76;100270.61;105476;1256;62460;-61
2023/04/03 16:48:39;;;;;;;3.10;1.00;;;;;;;6.07;72.85;100275.63;105349;1257;64829;-62
2023/04/03 16:51:07;;;;;;;5.40;2.20;;;;;;;6.07;72.84;100278.59;105437;1256;59529;-62
2023/04/03 16:53:35;;;;;;;4.80;2.30;;;;;;;6.06;72.98;100276.90;105613;1257;59675;-61
2023/04/03 16:56:02;;;;;;;4.30;1.40;;;;;;;6.06;73.16;100283.70;105407;1259;65342;-62
2023/04/03 16:58:29;;;;;;;3.30;1.30;;;;;;;6.02;72.98;100286.25;105397;1257;62456;-66
2023/04/03 17:01:21;;;;;;;6.50;3.00;;;;;;;5.98;73.03;100301.45;105373;1258;65011;-62
2023/04/03 17:03:49;;;;;;;4.40;2.10;;;;;;;5.95;73.04;100307.90;105378;1257;59801;-68
2023/04/03 17:06:18;;;;;;;2.90;0.90;;;;;;;5.93;72.92;100309.55;105245;1260;59657;-65
2023/04/03 17:08:47;;;;;;;4.90;2.30;;;;;;;5.98;72.94;100312.26;105246;1260;65531;-63
2023/04/03 17:11:28;;;;;;;3.10;1.10;;;;;;;5.96;73.31;100313.61;105334;1257;62702;-66
2023/04/03 17:13:55;;;;;;;4.80;2.40;;;;;;;5.94;73.15;100320.67;105536;1259;64825;-62
2023/04/03 17:16:22;;;;;;;4.20;1.40;;;;;;;5.94;72.96;100325.55;105370;1257;59758;-62
2023/04/03 17:18:49;;;;;;;5.10;2.20;;;;;;;5.93;73.01;100331.70;105550;1257;59560;-49
2023/04/03 17:21:16;;;;;;;4.90;2.50;;;;;;;5.85;72.98;100330.79;105294;1256;64188;-47
2023/04/03 17:23:44;;;;;;;5.10;1.70;;;;;;;5.87;72.71;100333.09;105480;1255;62332;-47
2023/04/03 17:26:11;;;;;;;3.20;1.10;;;;;;;5.82;73.01;100324.02;105394;1260;64983;-46
2023/04/03 17:28:40;;;;;;;4.50;2.00;;;;;;;5.82;73.03;100329.07;105407;1255;59729;-47
2023/04/03 17:31:07;;;;;;;7.30;2.40;;;;;;;5.83;73.10;100333.86;105231;1255;59775;-46
2023/04/03 17:33:35;;;;;;;3.40;0.90;;;;;;;5.81;73.29;100341.11;105470;1256;65185;-47
2023/04/03 17:36:03;;;;;;;3.80;1.70;;;;;;;5.81;73.30;100347.08;105454;1257;62764;-47
2023/04/03 17:38:31;;;;;;;3.10;0.70;;;;;;;5.84;73.10;100344.98;105430;1257;63909;-47
2023/04/03 17:40:58;;;;;;;4.10;2.00;;;;;;;5.83;73.00;100350.57;105784;1257;59579;-47
2023/04/03 17:43:27;;;;;;;4.90;2.00;;;;;;;5.75;73.07;100345.48;105623;1257;59675;-47
2023/04/03 17:46:02;;;;;;;4.20;1.20;;;;;;;5.74;73.28;100349.00;105405;1258;65388;-47
2023/04/03 17:48:33;;;;;;;3.60;1.00;;;;;;;5.76;73.14;100350.80;105343;1256;62497;-46
2023/04/03 17:51:07;;;;;;;3.80;1.80;;;;;;;5.72;73.25;100356.83;105520;1257;64704;-48
2023/04/03 17:53:37;;;;;;;4.10;1.00;;;;;;;5.73;73.20;100363.17;105496;1256;60876;-49
2023/04/03 17:56:09;;;;;;;3.80;1.60;;;;;;;5.74;73.19;100365.54;105236;1258;59682;-48
2023/04/03 17:58:38;;;;;;;3.20;0.80;;;;;;;5.72;73.02;100361.46;105531;1259;65271;-48
2023/04/03 18:01:23;;;;;;;3.20;0.80;;;;;;;5.73;73.24;100361.06;105518;1257;62440;-46